Time;durP1;ratioP1;P1;durP2;ratioP2;P2;SDS_P1;SDS_P2;PMS_P1;PMS_P2;Temp;Humidity;BMP_temperature;BMP_pressure;BME280_temperature;BME280_humidity;BME280_pressure;Samples;Min_cycle;Max_cycle;Signal;HPM_P1;HPM_P2
2024/02/16 00:00:46;;;;;;;14.60;7.30;;;7.70;99.90;7.50;100619.00;;;;4903669;28;109787;-71
2024/02/16 00:03:12;;;;;;;8.67;6.00;;;7.60;99.90;7.40;100623.00;;;;4907022;28;88293;-71
2024/02/16 00:05:38;;;;;;;10.30;6.93;;;7.60;99.90;7.40;100620.00;;;;4907703;28;88980;-71
2024/02/16 00:08:04;;;;;;;9.93;6.33;;;7.70;99.90;7.30;100618.00;;;;4904210;28;118471;-71
2024/02/16 00:10:30;;;;;;;9.20;6.30;;;7.50;99.90;7.30;100621.00;;;;4908563;28;87851;-71
2024/02/16 00:12:56;;;;;;;6.40;5.60;;;7.50;99.90;7.30;100617.00;;;;4908311;28;108216;-71
2024/02/16 00:15:23;;;;;;;10.67;6.77;;;7.50;99.90;7.20;100620.00;;;;4907816;28;88419;-71
2024/02/16 00:17:49;;;;;;;9.07;5.60;;;7.50;99.90;7.20;100620.00;;;;4908515;28;87986;-72
2024/02/16 00:20:15;;;;;;;10.93;6.43;;;7.40;99.90;7.20;100618.00;;;;4907110;28;88015;-71
2024/02/16 00:22:40;;;;;;;8.80;5.50;;;7.40;99.90;7.10;100621.00;;;;4908307;28;107087;-71
2024/02/16 00:25:07;;;;;;;10.60;6.33;;;7.30;99.90;7.10;100620.00;;;;4907230;28;88311;-71
2024/02/16 00:27:33;;;;;;;8.67;6.30;;;7.30;99.90;7.10;100622.00;;;;4908800;28;105503;-71
2024/02/16 00:29:59;;;;;;;8.43;6.57;;;7.20;99.90;7.00;100613.00;;;;4906477;28;109499;-71
2024/02/16 00:32:29;;;;;;;7.00;4.87;;;7.20;99.90;7.00;100621.00;;;;4905232;28;88270;-72
2024/02/16 00:34:55;;;;;;;12.83;8.33;;;7.20;99.90;7.00;100606.00;;;;4906393;28;88760;-71
2024/02/16 00:37:21;;;;;;;9.00;6.43;;;7.10;99.90;6.90;100614.00;;;;4903432;28;117885;-71
2024/02/16 00:39:46;;;;;;;9.13;6.70;;;7.40;99.90;6.90;100606.00;;;;4907402;28;87128;-71
2024/02/16 00:42:12;;;;;;;10.20;6.40;;;7.10;99.90;6.80;100599.00;;;;4912410;28;109384;-71
2024/02/16 00:44:38;;;;;;;8.93;6.23;;;7.00;99.90;6.80;100599.00;;;;4908324;28;117659;-71
2024/02/16 00:47:05;;;;;;;7.60;6.13;;;7.10;99.90;6.80;100596.00;;;;4913473;28;90144;-72
2024/02/16 00:49:34;;;;;;;7.27;5.70;;;7.00;99.90;6.80;100597.00;;;;4907137;28;87828;-72
2024/02/16 00:52:01;;;;;;;11.50;6.43;;;7.00;99.90;6.80;100600.00;;;;4908698;28;96072;-71
2024/02/16 00:54:27;;;;;;;9.97;6.30;;;7.00;99.90;6.80;100599.00;;;;4910287;28;88437;-72
2024/02/16 00:56:54;;;;;;;8.23;5.43;;;7.70;99.90;6.70;100591.00;;;;4908187;28;87905;-73
2024/02/16 00:59:21;;;;;;;9.17;5.80;;;7.00;99.90;6.70;100597.00;;;;4906837;28;87845;-71
2024/02/16 01:01:46;;;;;;;10.00;5.73;;;7.10;99.90;6.70;100593.00;;;;4907822;28;87967;-71
2024/02/16 01:04:12;;;;;;;9.03;6.47;;;6.90;99.90;6.70;100596.00;;;;4906556;28;87285;-72
2024/02/16 01:06:38;;;;;;;9.60;7.10;;;7.40;99.90;6.70;100589.00;;;;4903347;28;103972;-71
2024/02/16 01:09:03;;;;;;;8.70;6.23;;;6.80;99.90;6.60;100580.00;;;;4905388;28;97485;-72
2024/02/16 01:11:29;;;;;;;16.83;7.07;;;7.10;99.90;6.60;100587.00;;;;4908674;28;109034;-72
2024/02/16 01:13:55;;;;;;;8.77;5.83;;;6.80;99.90;6.60;100591.00;;;;4907775;28;104784;-72
2024/02/16 01:16:21;;;;;;;7.03;4.53;;;7.00;99.90;6.60;100581.00;;;;4907092;28;110837;-72
2024/02/16 01:18:46;;;;;;;7.83;5.73;;;7.30;99.90;6.60;100581.00;;;;4907968;28;99605;-71
2024/02/16 01:21:12;;;;;;;9.07;5.70;;;6.90;99.90;6.60;100582.00;;;;4909343;28;106175;-72
2024/02/16 01:23:37;;;;;;;9.07;5.73;;;6.70;99.90;6.50;100577.00;;;;4891168;28;116901;-72
2024/02/16 01:26:03;;;;;;;7.87;6.63;;;6.70;99.90;6.50;100576.00;;;;4906917;28;116840;-72
2024/02/16 01:28:29;;;;;;;8.03;5.30;;;6.70;99.90;6.50;100583.00;;;;4907035;28;87272;-72
2024/02/16 01:30:56;;;;;;;9.80;5.67;;;7.20;99.90;6.50;100583.00;;;;4906251;28;87766;-72
2024/02/16 01:33:22;;;;;;;7.10;4.77;;;6.70;99.90;6.50;100589.00;;;;4904724;28;88222;-72
2024/02/16 01:35:47;;;;;;;7.50;5.83;;;7.30;99.90;6.40;100583.00;;;;4920809;28;89105;-73
2024/02/16 01:38:13;;;;;;;7.97;5.67;;;6.80;99.90;6.40;100576.00;;;;4905839;28;110308;-73
2024/02/16 01:40:40;;;;;;;6.57;5.03;;;6.60;99.90;6.40;100578.00;;;;4904021;28;104173;-72
2024/02/16 01:43:06;;;;;;;6.87;4.43;;;6.60;99.90;6.30;100578.00;;;;4904342;28;87984;-73
2024/02/16 01:45:31;;;;;;;7.20;5.10;;;6.50;99.90;6.30;100579.00;;;;4907257;28;107607;-73
2024/02/16 01:47:58;;;;;;;5.03;4.53;;;7.10;99.90;6.30;100575.00;;;;4904361;28;98495;-73
2024/02/16 01:50:24;;;;;;;6.73;4.77;;;6.50;99.90;6.30;100572.00;;;;4905792;28;108755;-73
2024/02/16 01:52:50;;;;;;;6.13;4.40;;;6.40;99.90;6.20;100572.00;;;;4908393;28;87576;-73
2024/02/16 01:55:16;;;;;;;9.23;5.23;;;6.40;99.90;6.20;100568.00;;;;4905668;28;88129;-73
2024/02/16 01:57:44;;;;;;;8.50;5.37;;;6.50;99.90;6.10;100559.00;;;;4904488;28;87885;-73
2024/02/16 02:00:11;;;;;;;7.43;4.27;;;6.30;99.90;6.10;100559.00;;;;4908044;28;88739;-73
2024/02/16 02:02:37;;;;;;;6.37;4.90;;;6.70;99.90;6.10;100560.00;;;;4906579;28;88560;-73
2024/02/16 02:05:04;;;;;;;9.40;5.10;;;6.50;99.90;6.10;100556.00;;;;4903945;28;88938;-73
2024/02/16 02:07:30;;;;;;;6.60;3.60;;;6.30;99.90;6.10;100555.00;;;;4905437;28;88213;-73
2024/02/16 02:09:56;;;;;;;7.13;3.87;;;6.20;99.90;6.00;100554.00;;;;4901121;28;108771;-73
2024/02/16 02:12:22;;;;;;;5.17;3.90;;;6.70;99.90;6.00;100550.00;;;;4903373;28;117797;-73
2024/02/16 02:14:49;;;;;;;5.67;3.70;;;6.30;99.90;6.00;100551.00;;;;4906128;28;88495;-73
2024/02/16 02:17:16;;;;;;;5.67;4.27;;;6.20;99.90;6.00;100558.00;;;;4903427;28;87037;-73
2024/02/16 02:19:41;;;;;;;5.27;4.07;;;6.20;99.90;6.00;100552.00;;;;4909820;28;87950;-73
2024/02/16 02:22:17;;;;;;;8.40;4.60;;;6.50;99.90;5.90;100551.00;;;;4904998;28;118223;-73
2024/02/16 02:24:48;;;;;;;4.60;4.03;;;6.30;99.90;5.90;100536.00;;;;4903013;28;89204;-73
2024/02/16 02:27:15;;;;;;;5.47;4.93;;;6.10;99.90;5.90;100538.00;;;;4902819;28;88923;-73
2024/02/16 02:29:41;;;;;;;9.87;6.03;;;6.30;99.90;5.90;100538.00;;;;4906825;28;98636;-73
2024/02/16 02:32:08;;;;;;;9.30;5.03;;;6.70;99.90;5.90;100538.00;;;;4903397;28;89086;-73
2024/02/16 02:34:34;;;;;;;5.93;4.73;;;6.10;99.90;5.90;100542.00;;;;4903251;28;90139;-73
2024/02/16 02:36:59;;;;;;;5.73;4.00;;;6.10;99.90;5.90;100527.00;;;;4905652;28;88194;-74
2024/02/16 02:39:25;;;;;;;4.67;3.97;;;6.10;99.90;5.90;100519.00;;;;4903220;28;110628;-74
2024/02/16 02:41:51;;;;;;;4.63;3.73;;;6.20;99.90;5.90;100521.00;;;;4904395;28;117852;-73
2024/02/16 02:44:19;;;;;;;3.93;3.10;;;6.50;99.90;5.90;100529.00;;;;4904245;28;88516;-72
2024/02/16 02:46:45;;;;;;;5.53;4.20;;;6.10;99.90;5.90;100522.00;;;;4903023;28;87884;-73
2024/02/16 02:49:10;;;;;;;5.20;3.67;;;6.60;99.90;5.90;100520.00;;;;4902513;28;88913;-73
2024/02/16 02:51:36;;;;;;;8.30;4.50;;;6.50;99.90;6.00;100512.00;;;;4903807;28;116933;-73
2024/02/16 02:54:02;;;;;;;6.70;4.27;;;6.10;99.90;6.00;100520.00;;;;4901942;28;87892;-74
2024/02/16 02:56:27;;;;;;;4.63;4.17;;;6.20;99.90;6.00;100528.00;;;;4901625;28;110474;-73
2024/02/16 02:58:53;;;;;;;6.13;4.43;;;6.90;99.90;6.00;100527.00;;;;4903006;28;108773;-73
2024/02/16 03:01:20;;;;;;;6.13;4.07;;;6.20;99.90;6.10;100526.00;;;;4906593;28;117514;-73
2024/02/16 03:03:46;;;;;;;8.40;4.87;;;7.10;99.90;6.10;100527.00;;;;4907146;28;88276;-73
2024/02/16 03:06:13;;;;;;;8.87;6.30;;;6.50;99.90;6.10;100523.00;;;;4908521;28;87130;-74
2024/02/16 03:08:39;;;;;;;7.53;5.43;;;6.50;99.90;6.10;100526.00;;;;4905530;28;87798;-73
2024/02/16 03:11:05;;;;;;;8.10;5.60;;;6.30;99.90;6.20;100522.00;;;;4909430;28;88626;-73
2024/02/16 03:13:33;;;;;;;7.53;5.27;;;7.10;99.90;6.20;100523.00;;;;4909929;28;117476;-73
2024/02/16 03:15:58;;;;;;;6.60;4.20;;;6.40;99.90;6.20;100521.00;;;;4906707;28;88223;-73
2024/02/16 03:18:24;;;;;;;6.53;4.40;;;6.40;99.90;6.20;100524.00;;;;4906678;28;109463;-73
2024/02/16 03:20:50;;;;;;;5.13;4.40;;;6.40;99.90;6.30;100523.00;;;;4907947;28;117655;-73
2024/02/16 03:23:16;;;;;;;8.17;4.73;;;6.40;99.90;6.30;100525.00;;;;4905608;28;88235;-73
2024/02/16 03:25:42;;;;;;;5.00;3.67;;;7.20;99.90;6.30;100518.00;;;;4906077;28;110999;-74
2024/02/16 03:28:15;;;;;;;5.57;4.07;;;7.10;99.90;6.30;100510.00;;;;4907629;28;106450;-73
2024/02/16 03:30:41;;;;;;;4.60;3.93;;;6.50;99.90;6.40;100510.00;;;;4908512;28;87970;-73
2024/02/16 03:33:07;;;;;;;6.37;4.93;;;7.10;99.90;6.40;100499.00;;;;4910210;28;88413;-74
2024/02/16 03:35:33;;;;;;;6.73;4.07;;;5.10;99.90;6.40;100500.00;;;;4907473;28;87719;-73
2024/02/16 03:37:59;;;;;;;5.13;4.30;;;6.60;99.90;6.40;100495.00;;;;4909620;28;104993;-74
2024/02/16 03:40:25;;;;;;;7.53;5.00;;;6.60;99.90;6.50;100497.00;;;;4906024;28;88256;-74
2024/02/16 03:42:52;;;;;;;7.03;4.73;;;6.80;99.90;6.50;100492.00;;;;4903966;28;89212;-73
2024/02/16 03:45:17;;;;;;;12.63;4.83;;;7.40;99.90;6.60;100494.00;;;;4904910;28;94896;-75
2024/02/16 03:47:43;;;;;;;7.40;5.40;;;6.70;99.90;6.60;100487.00;;;;4905026;28;90676;-74
2024/02/16 03:50:10;;;;;;;8.23;5.53;;;6.80;99.90;6.70;100487.00;;;;4906374;28;105951;-74
2024/02/16 03:52:37;;;;;;;11.17;6.17;;;6.80;99.90;6.70;100485.00;;;;4906362;28;88060;-74
2024/02/16 03:55:03;;;;;;;8.67;5.80;;;7.70;99.90;6.80;100497.00;;;;4906798;28;101009;-74
2024/02/16 03:57:30;;;;;;;10.37;6.50;;;6.90;99.90;6.90;100488.00;;;;4906846;28;96090;-74
2024/02/16 03:59:56;;;;;;;9.63;6.53;;;7.00;99.90;7.00;100506.00;;;;4908217;28;117493;-74
2024/02/16 04:02:21;;;;;;;13.23;7.43;;;7.20;99.90;7.10;100512.00;;;;4905150;28;117169;-74
2024/02/16 04:04:47;;;;;;;9.07;6.07;;;7.20;99.90;7.20;100507.00;;;;4904569;28;111512;-74
2024/02/16 04:07:13;;;;;;;9.20;6.17;;;7.40;99.90;7.20;100504.00;;;;4905532;28;108707;-74
2024/02/16 04:09:38;;;;;;;9.53;6.50;;;7.30;99.90;7.20;100501.00;;;;4905606;28;117549;-74
2024/02/16 04:12:05;;;;;;;10.10;7.20;;;7.30;99.90;7.20;100504.00;;;;4902208;28;117841;-74
2024/02/16 04:14:30;;;;;;;8.93;6.67;;;7.30;99.90;7.20;100515.00;;;;4907013;28;101365;-73
2024/02/16 04:16:59;;;;;;;7.53;5.60;;;7.40;99.90;7.10;100514.00;;;;4904596;28;88089;-74
2024/02/16 04:19:28;;;;;;;12.47;6.97;;;7.60;99.90;7.10;100521.00;;;;4907519;28;87722;-74
2024/02/16 04:21:54;;;;;;;7.93;5.33;;;7.30;99.90;7.10;100510.00;;;;4904368;28;89379;-74
2024/02/16 04:24:20;;;;;;;7.70;5.63;;;7.30;99.90;7.10;100517.00;;;;4908171;28;88379;-74
2024/02/16 04:26:46;;;;;;;7.17;4.13;;;7.30;99.90;7.00;100514.00;;;;4906617;28;98565;-74
2024/02/16 04:29:12;;;;;;;8.33;5.30;;;7.20;99.90;7.00;100513.00;;;;4891756;28;116916;-74
2024/02/16 04:31:46;;;;;;;8.30;4.13;;;7.20;99.90;7.00;100518.00;;;;4905713;28;88044;-74
2024/02/16 04:34:12;;;;;;;6.60;4.37;;;7.20;99.90;6.90;100515.00;;;;4907044;28;87811;-74
2024/02/16 04:36:38;;;;;;;4.57;4.17;;;7.20;99.90;6.90;100511.00;;;;4908680;28;93077;-74
2024/02/16 04:39:03;;;;;;;6.00;4.70;;;7.10;99.90;6.80;100506.00;;;;4906604;28;116572;-74
2024/02/16 04:41:29;;;;;;;7.40;3.67;;;6.90;99.90;6.80;100525.00;;;;4908523;28;115221;-74
2024/02/16 04:43:55;;;;;;;7.37;4.87;;;7.00;99.90;6.80;100517.00;;;;4908364;28;110894;-73
2024/02/16 04:46:21;;;;;;;6.70;4.37;;;6.90;99.90;6.70;100528.00;;;;4892659;28;108681;-74
2024/02/16 04:48:47;;;;;;;5.57;4.80;;;6.90;99.90;6.70;100519.00;;;;4907694;28;89628;-74
2024/02/16 04:51:12;;;;;;;6.33;4.87;;;7.00;99.90;6.70;100509.00;;;;4903784;28;116476;-74
2024/02/16 04:53:38;;;;;;;6.70;5.07;;;6.90;99.90;6.60;100498.00;;;;4904338;28;110709;-74
2024/02/16 04:56:04;;;;;;;5.90;4.97;;;6.90;99.90;6.60;100488.00;;;;4902651;28;98057;-74
2024/02/16 04:58:31;;;;;;;8.60;4.90;;;6.80;99.90;6.50;100486.00;;;;4904496;28;88113;-74
2024/02/16 05:00:57;;;;;;;9.67;5.70;;;6.70;99.90;6.50;100480.00;;;;4910336;28;88094;-75
2024/02/16 05:03:23;;;;;;;7.63;5.57;;;6.70;99.90;6.50;100479.00;;;;4904664;28;98703;-74
2024/02/16 05:05:48;;;;;;;12.33;6.07;;;7.00;99.90;6.50;100491.00;;;;4909368;28;94820;-74
2024/02/16 05:08:14;;;;;;;4.97;4.47;;;6.70;99.90;6.50;100499.00;;;;4904519;28;117304;-75
2024/02/16 05:10:40;;;;;;;7.63;5.40;;;7.40;99.90;6.50;100502.00;;;;4903699;28;116128;-75
2024/02/16 05:13:06;;;;;;;8.57;6.23;;;6.70;99.90;6.50;100488.00;;;;4906342;28;87513;-75
2024/02/16 05:15:31;;;;;;;9.03;6.00;;;6.70;99.90;6.50;100487.00;;;;4907878;28;108505;-75
2024/02/16 05:17:57;;;;;;;9.07;7.30;;;7.30;99.90;6.50;100489.00;;;;4906611;28;117311;-74
2024/02/16 05:20:23;;;;;;;10.13;6.10;;;6.70;99.90;6.50;100486.00;;;;4904737;28;119335;-74
2024/02/16 05:22:49;;;;;;;8.37;6.23;;;6.70;99.90;6.50;100482.00;;;;4909259;28;100970;-75
2024/02/16 05:25:18;;;;;;;10.77;7.10;;;6.70;99.90;6.60;100479.00;;;;4891805;28;89078;-74
2024/02/16 05:27:47;;;;;;;10.83;6.83;;;7.00;99.90;6.60;100485.00;;;;4917224;28;110108;-74
2024/02/16 05:30:15;;;;;;;8.83;6.07;;;6.80;99.90;6.70;100495.00;;;;4890964;28;90011;-75
2024/02/16 05:32:42;;;;;;;12.80;6.53;;;6.80;99.90;6.70;100486.00;;;;4889780;28;87105;-74
2024/02/16 05:35:12;;;;;;;10.50;6.93;;;6.80;99.90;6.80;100503.00;;;;4900417;28;99892;-74
2024/02/16 05:37:39;;;;;;;8.90;6.63;;;6.90;99.90;6.80;100489.00;;;;4903066;28;88308;-74
2024/02/16 05:40:19;;;;;;;11.00;7.17;;;6.90;99.90;6.80;100487.00;;;;4903413;28;88820;-74
2024/02/16 05:42:46;;;;;;;7.83;6.17;;;7.00;99.90;6.80;100485.00;;;;4903058;28;90749;-74
2024/02/16 05:45:12;;;;;;;8.97;6.77;;;7.00;99.90;6.90;100484.00;;;;4903357;28;88027;-74
2024/02/16 05:47:38;;;;;;;10.77;7.17;;;7.00;99.90;6.90;100485.00;;;;4907620;28;105937;-74
2024/02/16 05:50:06;;;;;;;8.63;7.37;;;7.10;99.90;6.90;100487.00;;;;4904919;28;117301;-74
2024/02/16 05:52:32;;;;;;;8.07;6.13;;;7.10;99.90;7.00;100490.00;;;;4908894;28;88104;-74
2024/02/16 05:54:57;;;;;;;9.03;6.27;;;7.10;99.90;7.00;100472.00;;;;4905626;28;88236;-74
2024/02/16 05:57:24;;;;;;;13.37;6.47;;;7.20;99.90;6.90;100481.00;;;;4900807;28;117200;-74
2024/02/16 05:59:51;;;;;;;9.33;8.00;;;7.10;99.90;6.90;100476.00;;;;4906666;28;91625;-74
2024/02/16 06:02:18;;;;;;;10.97;8.27;;;7.10;99.90;6.90;100473.00;;;;4908916;28;88008;-74
2024/02/16 06:04:43;;;;;;;8.77;6.90;;;7.10;99.90;6.90;100470.00;;;;4907568;28;89084;-74
2024/02/16 06:07:10;;;;;;;10.67;8.23;;;7.00;99.90;6.90;100470.00;;;;4905059;28;115978;-74
2024/02/16 06:09:37;;;;;;;10.87;6.37;;;7.00;99.90;6.90;100465.00;;;;4906995;28;88124;-73
2024/02/16 06:12:04;;;;;;;10.43;7.33;;;7.00;99.90;6.90;100467.00;;;;4895413;28;87908;-73
2024/02/16 06:14:31;;;;;;;11.63;7.70;;;7.00;99.90;6.90;100467.00;;;;4907831;28;88210;-74
2024/02/16 06:17:14;;;;;;;13.97;7.63;;;7.20;99.90;6.90;100472.00;;;;4906193;28;88055;-74
2024/02/16 06:19:41;;;;;;;14.70;9.60;;;7.00;99.90;6.90;100471.00;;;;4906443;28;88733;-74
2024/02/16 06:22:08;;;;;;;15.60;8.80;;;7.00;99.90;6.90;100467.00;;;;4909617;28;87005;-75
2024/02/16 06:24:34;;;;;;;14.40;8.90;;;7.10;99.90;6.90;100472.00;;;;4895166;28;88094;-74
2024/02/16 06:27:00;;;;;;;11.93;7.57;;;7.10;99.90;6.90;100475.00;;;;4902361;28;103747;-74
2024/02/16 06:29:25;;;;;;;9.60;6.90;;;7.10;99.90;7.00;100486.00;;;;4905374;28;117277;-74
2024/02/16 06:31:51;;;;;;;11.47;8.83;;;7.20;99.90;7.10;100477.00;;;;4907177;28;108751;-73
2024/02/16 06:34:19;;;;;;;13.27;8.30;;;7.20;99.90;7.10;100492.00;;;;4903064;28;87915;-74
2024/02/16 06:36:44;;;;;;;14.27;9.67;;;7.30;99.90;7.20;100495.00;;;;4904384;28;88522;-74
2024/02/16 06:39:16;;;;;;;12.83;8.57;;;7.30;99.90;7.20;100498.00;;;;4902873;28;117866;-74
2024/02/16 06:41:43;;;;;;;13.80;6.57;;;7.30;99.90;7.20;100498.00;;;;4909834;28;87856;-73
2024/02/16 06:44:10;;;;;;;13.80;7.57;;;7.30;99.90;7.20;100498.00;;;;4905250;28;88044;-74
2024/02/16 06:46:35;;;;;;;9.97;8.23;;;7.30;99.90;7.20;100509.00;;;;4907895;28;90238;-74
2024/02/16 06:49:01;;;;;;;12.20;7.60;;;7.30;99.90;7.20;100506.00;;;;4891882;28;116390;-74
2024/02/16 06:51:28;;;;;;;12.33;8.53;;;7.30;99.90;7.10;100501.00;;;;4903401;28;110546;-73
2024/02/16 06:53:54;;;;;;;11.33;7.63;;;7.50;99.90;7.10;100508.00;;;;4904619;28;89042;-73
2024/02/16 06:56:20;;;;;;;11.57;8.43;;;7.30;99.90;7.10;100506.00;;;;4901420;28;88416;-73
2024/02/16 06:58:46;;;;;;;9.20;7.17;;;7.30;99.90;7.10;100502.00;;;;4906366;28;87907;-74
2024/02/16 07:01:13;;;;;;;12.30;6.93;;;7.20;99.90;7.10;100507.00;;;;4906658;28;100192;-74
2024/02/16 07:03:39;;;;;;;15.60;8.93;;;7.30;99.90;7.10;100513.00;;;;4905273;28;87833;-74
2024/02/16 07:06:09;;;;;;;10.23;7.50;;;7.40;99.90;7.10;100511.00;;;;4903834;28;88438;-73
2024/02/16 07:08:36;;;;;;;18.10;10.40;;;7.30;99.90;7.20;100517.00;;;;4907218;28;88108;-73
2024/02/16 07:11:03;;;;;;;16.83;9.17;;;7.40;99.90;7.30;100512.00;;;;4904406;28;87342;-73
2024/02/16 07:13:29;;;;;;;13.90;9.13;;;7.40;99.90;7.30;100510.00;;;;4909522;28;87964;-72
2024/02/16 07:15:54;;;;;;;16.23;10.50;;;7.50;99.90;7.30;100500.00;;;;4903519;28;117526;-73
2024/02/16 07:18:21;;;;;;;14.70;9.97;;;7.50;99.90;7.30;100503.00;;;;4902601;28;117426;-72
2024/02/16 07:20:47;;;;;;;15.23;8.53;;;7.50;99.90;7.40;100500.00;;;;4905051;28;87839;-72
2024/02/16 07:23:15;;;;;;;14.70;8.47;;;7.50;99.90;7.40;100499.00;;;;4908325;28;88136;-72
2024/02/16 07:25:41;;;;;;;17.33;10.13;;;7.60;99.90;7.50;100493.00;;;;4905509;28;88557;-72
2024/02/16 07:28:08;;;;;;;18.17;10.03;;;7.60;99.90;7.70;100499.00;;;;4903758;28;90022;-73
2024/02/16 07:30:38;;;;;;;12.57;9.37;;;7.80;99.90;7.80;100481.00;;;;4902687;28;87938;-73
2024/02/16 07:33:09;;;;;;;9.63;8.30;;;7.90;99.90;8.10;100495.00;;;;4904582;28;88393;-73
2024/02/16 07:35:35;;;;;;;15.03;8.57;;;8.10;99.90;8.40;100497.00;;;;4907015;28;87972;-73
2024/02/16 07:38:03;;;;;;;11.40;9.40;;;8.40;99.90;8.80;100504.00;;;;4901362;28;116416;-72
2024/02/16 07:40:28;;;;;;;15.70;9.77;;;8.80;99.90;9.30;100506.00;;;;4903554;28;87817;-72
2024/02/16 07:42:54;;;;;;;15.30;9.10;;;9.20;99.90;9.70;100516.00;;;;4905099;28;108635;-72
2024/02/16 07:45:20;;;;;;;15.93;9.93;;;9.60;99.90;10.20;100509.00;;;;4906018;28;117610;-72
2024/02/16 07:47:46;;;;;;;9.50;7.03;;;10.10;99.90;10.60;100505.00;;;;4911650;28;96635;-72
2024/02/16 07:50:12;;;;;;;12.23;6.67;;;10.50;99.90;11.00;100509.00;;;;4909351;28;107043;-72
2024/02/16 07:52:42;;;;;;;11.57;7.20;;;11.00;99.90;11.50;100512.00;;;;4908669;28;87994;-72
2024/02/16 07:55:08;;;;;;;10.13;6.27;;;11.40;99.90;11.90;100513.00;;;;4924453;28;88247;-71
2024/02/16 07:57:34;;;;;;;13.37;6.60;;;11.80;99.90;12.00;100509.00;;;;4906988;28;111824;-72
2024/02/16 08:00:00;;;;;;;9.03;6.57;;;12.00;99.90;12.10;100497.00;;;;4909377;28;88792;-71
2024/02/16 08:02:26;;;;;;;8.87;6.10;;;12.20;99.90;12.20;100493.00;;;;4909989;28;104106;-73
2024/02/16 08:04:55;;;;;;;8.17;4.57;;;12.20;99.90;12.40;100495.00;;;;4904693;28;117506;-71
2024/02/16 08:07:21;;;;;;;9.40;5.40;;;12.40;99.90;12.60;100486.00;;;;4907311;28;88892;-72
2024/02/16 08:09:47;;;;;;;7.40;4.33;;;12.60;99.90;12.70;100486.00;;;;4911368;28;87867;-73
2024/02/16 08:12:13;;;;;;;5.83;3.87;;;12.70;99.90;12.70;100476.00;;;;4899219;28;88041;-72
2024/02/16 08:14:40;;;;;;;5.97;5.00;;;12.80;99.90;12.60;100482.00;;;;4923363;28;118877;-71
2024/02/16 08:17:09;;;;;;;7.90;5.63;;;12.70;99.90;12.50;100487.00;;;;4906988;28;97577;-71
2024/02/16 08:19:37;;;;;;;7.50;4.40;;;12.70;99.90;12.40;100491.00;;;;4905567;28;97641;-71
2024/02/16 08:22:08;;;;;;;7.63;4.37;;;12.50;99.90;12.30;100496.00;;;;4908483;28;100316;-72
2024/02/16 08:24:35;;;;;;;8.00;4.97;;;12.40;99.90;12.20;100498.00;;;;4905772;28;100280;-71
2024/02/16 08:27:04;;;;;;;10.43;5.10;;;12.30;99.90;12.10;100490.00;;;;4906079;28;88086;-71
2024/02/16 08:29:30;;;;;;;4.97;3.53;;;12.20;99.90;12.00;100480.00;;;;4904864;28;87624;-71
2024/02/16 08:31:55;;;;;;;7.20;4.63;;;12.10;99.90;12.00;100469.00;;;;4904253;28;88924;-72
2024/02/16 08:34:21;;;;;;;6.30;3.93;;;12.00;99.90;11.90;100478.00;;;;4905170;28;88065;-71
2024/02/16 08:36:48;;;;;;;6.87;4.40;;;12.00;99.90;11.90;100479.00;;;;4907964;28;88704;-73
2024/02/16 08:39:16;;;;;;;10.77;5.07;;;12.00;99.90;11.90;100471.00;;;;4907241;28;87678;-71
2024/02/16 08:41:44;;;;;;;8.13;5.07;;;11.90;99.90;11.90;100473.00;;;;4907328;28;87899;-71
2024/02/16 08:44:10;;;;;;;9.37;5.07;;;11.90;99.90;11.90;100478.00;;;;4904709;28;89806;-71
2024/02/16 08:46:39;;;;;;;7.80;4.97;;;11.90;99.90;11.90;100472.00;;;;4904800;28;97618;-73
2024/02/16 08:49:06;;;;;;;6.03;4.30;;;11.90;99.90;11.90;100478.00;;;;4903911;28;99227;-70
2024/02/16 08:51:33;;;;;;;10.13;4.37;;;11.90;99.90;11.90;100473.00;;;;4906749;28;108451;-74
2024/02/16 08:53:59;;;;;;;5.93;4.40;;;11.90;99.90;12.00;100474.00;;;;4909066;28;88061;-70
2024/02/16 08:56:25;;;;;;;7.43;4.57;;;12.00;99.90;12.00;100479.00;;;;4905975;28;89015;-72
2024/02/16 08:58:51;;;;;;;7.37;4.63;;;12.00;99.90;12.00;100476.00;;;;4905572;28;100605;-71
2024/02/16 09:01:17;;;;;;;7.27;4.47;;;12.00;99.90;12.10;100488.00;;;;4887539;28;109216;-71
2024/02/16 09:03:43;;;;;;;7.20;4.23;;;12.10;99.90;12.10;100486.00;;;;4907728;28;116862;-71
2024/02/16 09:06:08;;;;;;;6.07;4.07;;;12.10;99.90;12.10;100492.00;;;;4906369;28;117432;-73
2024/02/16 09:08:35;;;;;;;6.10;4.40;;;12.20;99.90;12.20;100493.00;;;;4909032;28;110611;-73
2024/02/16 09:11:05;;;;;;;5.53;4.80;;;12.10;99.90;12.20;100486.00;;;;4909695;28;88129;-74
2024/02/16 09:13:35;;;;;;;7.00;5.40;;;12.20;99.90;12.20;100485.00;;;;4910885;28;89132;-70
2024/02/16 09:16:05;;;;;;;8.17;5.33;;;12.20;99.90;12.20;100476.00;;;;4904331;28;97788;-71
2024/02/16 09:18:31;;;;;;;7.97;4.40;;;12.20;99.90;12.30;100484.00;;;;4906196;28;87913;-72
2024/02/16 09:20:57;;;;;;;6.73;4.37;;;12.30;99.90;12.30;100476.00;;;;4908053;28;88738;-74
2024/02/16 09:23:23;;;;;;;4.50;3.87;;;12.30;99.90;12.50;100476.00;;;;4904842;28;92833;-71
2024/02/16 09:25:50;;;;;;;6.20;3.60;;;12.40;99.90;12.90;100465.00;;;;4907806;28;116260;-71
2024/02/16 09:28:18;;;;;;;7.60;4.33;;;12.70;99.90;13.10;100464.00;;;;4905586;28;87945;-73
2024/02/16 09:30:44;;;;;;;5.80;3.77;;;13.00;99.90;13.40;100469.00;;;;4894143;28;88167;-69
2024/02/16 09:33:10;;;;;;;6.67;4.13;;;13.30;99.90;13.60;100483.00;;;;4903686;28;112432;-69
2024/02/16 09:35:36;;;;;;;5.63;4.03;;;13.50;99.90;13.80;100482.00;;;;4908807;28;118338;-70
2024/02/16 09:38:02;;;;;;;5.83;3.97;;;13.70;99.90;13.70;100476.00;;;;4906472;28;87054;-71
2024/02/16 09:40:28;;;;;;;7.00;3.87;;;13.70;99.90;13.70;100481.00;;;;4905155;28;88366;-71
2024/02/16 09:42:54;;;;;;;6.80;4.07;;;13.30;99.90;13.70;100479.00;;;;4906878;28;88366;-71
2024/02/16 09:45:20;;;;;;;4.82;4.28;;;13.70;99.90;13.60;100473.00;;;;4904420;28;117961;-73
2024/02/16 09:47:49;;;;;;;8.02;4.82;;;13.60;99.90;13.50;100477.00;;;;4922837;28;88133;-73
2024/02/16 09:50:15;;;;;;;8.57;4.68;;;13.50;99.90;13.40;100476.00;;;;4908891;28;87685;-71
2024/02/16 09:52:49;;;;;;;5.35;3.53;;;13.40;99.90;13.30;100489.00;;;;4918045;28;117497;-73
2024/02/16 09:55:17;;;;;;;5.77;3.73;;;13.30;99.90;13.20;100486.00;;;;4906233;28;88587;-72
2024/02/16 09:57:43;;;;;;;7.20;4.47;;;13.20;99.90;13.20;100493.00;;;;4892730;28;88109;-70
2024/02/16 10:00:11;;;;;;;6.00;4.43;;;13.20;99.90;13.30;100488.00;;;;4906352;28;87806;-69
2024/02/16 10:02:45;;;;;;;6.10;3.37;;;13.20;99.90;13.40;100489.00;;;;4921373;28;87880;-72
2024/02/16 10:05:20;;;;;;;6.53;3.40;;;13.40;99.90;13.40;100499.00;;;;4905565;28;104036;-72
2024/02/16 10:07:46;;;;;;;4.83;3.80;;;13.30;99.90;13.40;100491.00;;;;4906334;28;98180;-69
2024/02/16 10:10:33;;;;;;;5.72;3.85;;;13.30;99.90;13.50;100497.00;;;;4904979;28;89120;-70
2024/02/16 10:13:05;;;;;;;7.78;4.32;;;13.40;99.90;13.70;100495.00;;;;4909470;28;87915;-69
2024/02/16 10:15:32;;;;;;;4.55;3.20;;;13.60;99.90;13.80;100490.00;;;;4903978;28;88439;-72
2024/02/16 10:18:04;;;;;;;4.20;3.47;;;13.70;99.90;13.90;100496.00;;;;4908167;28;92778;-69
2024/02/16 10:20:31;;;;;;;6.03;3.83;;;13.80;99.90;14.00;100495.00;;;;4910094;28;87921;-70
2024/02/16 10:23:08;;;;;;;2.85;2.58;;;13.90;99.90;14.10;100481.00;;;;4906175;28;89317;-70
2024/02/16 10:25:43;;;;;;;3.85;3.38;;;14.00;99.90;14.10;100494.00;;;;4904558;28;88467;-69
2024/02/16 10:28:14;;;;;;;5.90;4.22;;;14.00;99.90;14.20;100482.00;;;;4907502;28;87227;-70
2024/02/16 10:30:44;;;;;;;5.38;3.10;;;14.10;99.90;14.20;100484.00;;;;4909013;28;88022;-71
2024/02/16 10:33:12;;;;;;;5.30;3.78;;;14.10;99.90;14.10;100480.00;;;;4902753;28;88366;-73
2024/02/16 10:35:39;;;;;;;4.75;3.50;;;14.10;99.90;14.10;100481.00;;;;4904713;28;88858;-70
2024/02/16 10:38:11;;;;;;;5.13;4.15;;;14.00;99.90;14.00;100475.00;;;;4902769;28;87703;-70
2024/02/16 10:40:41;;;;;;;4.45;3.25;;;14.60;99.90;13.90;100479.00;;;;4902906;28;87933;-72
2024/02/16 10:43:09;;;;;;;6.43;3.90;;;14.00;99.90;13.80;100476.00;;;;4902987;28;96563;-69
2024/02/16 10:45:38;;;;;;;6.88;4.25;;;13.80;99.90;13.70;100476.00;;;;4905482;28;88761;-70
2024/02/16 10:48:06;;;;;;;5.75;4.25;;;13.80;99.90;13.60;100467.00;;;;4905251;28;88433;-69
2024/02/16 10:50:34;;;;;;;5.45;3.53;;;13.70;99.90;13.60;100478.00;;;;4904561;28;88132;-69